createdAt,value
2018-07-04T00:00:37.292Z,3.10
2018-07-04T00:03:17.019Z,3.30
2018-07-04T00:05:56.743Z,3.33
2018-07-04T00:08:36.217Z,3.67
2018-07-04T00:11:15.746Z,3.03
2018-07-04T00:13:55.464Z,2.97
2018-07-04T00:16:35.802Z,3.27
2018-07-04T00:19:15.453Z,3.17
2018-07-04T00:21:55.014Z,3.40
2018-07-04T00:24:34.608Z,3.03
2018-07-04T00:27:14.121Z,3.17
2018-07-04T00:29:53.705Z,3.23
2018-07-04T00:32:33.306Z,2.97
2018-07-04T00:35:12.805Z,3.07
2018-07-04T00:37:52.448Z,2.60
2018-07-04T00:40:32.025Z,3.00
2018-07-04T00:43:11.553Z,3.50
2018-07-04T00:45:51.106Z,3.10
2018-07-04T00:48:30.814Z,3.07
2018-07-04T00:51:10.399Z,3.23
2018-07-04T00:53:50.104Z,3.40
2018-07-04T00:56:29.742Z,3.27
2018-07-04T00:59:09.414Z,3.33
2018-07-04T01:01:49.218Z,3.80
2018-07-04T01:04:22.775Z,3.60
2018-07-04T01:07:02.308Z,3.20
2018-07-04T01:09:41.884Z,3.53
2018-07-04T01:12:21.663Z,3.03
2018-07-04T01:15:01.189Z,3.40
2018-07-04T01:17:34.650Z,2.60
2018-07-04T01:20:14.220Z,3.73
2018-07-04T01:22:53.697Z,3.37
2018-07-04T01:25:33.331Z,3.67
2018-07-04T01:28:13.026Z,3.70
2018-07-04T01:30:52.810Z,3.57
2018-07-04T01:33:32.421Z,3.40
2018-07-04T01:36:11.940Z,3.10
2018-07-04T01:38:51.475Z,3.50
2018-07-04T01:41:31.198Z,3.57
2018-07-04T01:44:10.878Z,3.37
2018-07-04T01:46:50.499Z,3.73
2018-07-04T01:49:30.102Z,3.70
2018-07-04T01:52:10.120Z,4.87
2018-07-04T01:54:49.725Z,4.50
2018-07-04T01:57:29.301Z,3.80
2018-07-04T02:00:08.825Z,4.10
2018-07-04T02:02:48.537Z,3.67
2018-07-04T02:05:28.335Z,3.93
2018-07-04T02:08:07.830Z,3.67
2018-07-04T02:10:47.279Z,4.10
2018-07-04T02:13:26.836Z,3.50
2018-07-04T02:16:06.422Z,3.50
2018-07-04T02:18:46.170Z,3.30
2018-07-04T02:21:19.670Z,3.63
2018-07-04T02:23:59.301Z,3.50
2018-07-04T02:26:32.938Z,3.30
2018-07-04T02:29:12.501Z,3.40
2018-07-04T02:31:52.370Z,3.37
2018-07-04T02:34:31.886Z,4.10
2018-07-04T02:37:11.632Z,3.60
2018-07-04T02:39:51.283Z,3.80
2018-07-04T02:42:31.026Z,3.43
2018-07-04T02:45:10.596Z,3.53
2018-07-04T02:47:50.309Z,3.40
2018-07-04T02:50:29.836Z,3.30
2018-07-04T02:53:09.439Z,3.97
2018-07-04T02:55:49.060Z,3.80
2018-07-04T02:58:28.659Z,4.07
2018-07-04T03:01:08.357Z,3.60
2018-07-04T03:03:41.953Z,3.50
2018-07-04T03:06:21.431Z,3.67
2018-07-04T03:09:01.136Z,3.67
2018-07-04T03:11:40.765Z,3.80
2018-07-04T03:14:20.568Z,4.00
2018-07-04T03:17:00.177Z,3.90
2018-07-04T03:19:40.138Z,4.00
2018-07-04T03:22:19.725Z,3.87
2018-07-04T03:24:59.342Z,3.80
2018-07-04T03:27:38.999Z,3.97
2018-07-04T03:30:18.576Z,4.70
2018-07-04T03:32:58.259Z,4.40
2018-07-04T03:35:37.880Z,3.60
2018-07-04T03:38:17.627Z,4.20
2018-07-04T03:40:57.594Z,4.13
2018-07-04T03:43:37.549Z,3.60
2018-07-04T03:46:17.362Z,4.60
2018-07-04T03:48:57.140Z,3.90
2018-07-04T03:51:36.980Z,4.40
2018-07-04T03:54:16.652Z,4.33
2018-07-04T03:56:56.280Z,5.03
2018-07-04T03:59:36.328Z,4.40
2018-07-04T04:02:16.034Z,4.00
2018-07-04T04:04:55.539Z,4.20
2018-07-04T04:07:35.282Z,3.90
2018-07-04T04:10:14.909Z,4.17
2018-07-04T04:12:54.553Z,4.20
2018-07-04T04:15:34.252Z,3.80
2018-07-04T04:18:14.001Z,3.90
2018-07-04T04:20:53.639Z,3.93
2018-07-04T04:23:33.325Z,3.57
2018-07-04T04:26:12.943Z,4.13
2018-07-04T04:28:52.567Z,4.63
2018-07-04T04:31:32.110Z,3.93
2018-07-04T04:34:05.691Z,3.63
2018-07-04T04:36:45.186Z,3.70
2018-07-04T04:39:24.968Z,4.23
2018-07-04T04:42:04.484Z,4.33
2018-07-04T04:44:44.176Z,4.10
2018-07-04T04:47:23.772Z,4.40
2018-07-04T04:50:03.413Z,4.50
2018-07-04T04:52:42.948Z,4.40
2018-07-04T04:55:22.682Z,4.10
2018-07-04T04:58:02.271Z,4.57
2018-07-04T05:00:41.957Z,4.10
2018-07-04T05:03:21.469Z,4.20
2018-07-04T05:06:01.245Z,3.80
2018-07-04T05:08:40.629Z,4.87
2018-07-04T05:11:20.240Z,5.30
2018-07-04T05:13:59.741Z,4.33
2018-07-04T05:16:39.413Z,4.47
2018-07-04T05:19:19.050Z,3.90
2018-07-04T05:21:59.208Z,4.13
2018-07-04T05:24:38.861Z,4.47
2018-07-04T05:27:18.342Z,4.20
2018-07-04T05:29:58.082Z,5.23
2018-07-04T05:32:37.553Z,4.40
2018-07-04T05:35:17.213Z,5.10
2018-07-04T05:37:56.918Z,4.10
2018-07-04T05:40:36.536Z,4.43
2018-07-04T05:43:16.266Z,4.00
2018-07-04T05:45:55.866Z,3.63
2018-07-04T05:48:35.525Z,3.60
2018-07-04T05:51:15.150Z,3.33
2018-07-04T05:53:54.877Z,4.00
2018-07-04T05:56:34.534Z,4.10
2018-07-04T05:59:14.265Z,4.43
2018-07-04T06:01:53.968Z,3.97
2018-07-04T06:04:33.764Z,3.93
2018-07-04T06:07:13.648Z,3.50
2018-07-04T06:09:53.349Z,3.87
2018-07-04T06:12:32.878Z,3.40
2018-07-04T06:15:12.592Z,4.03
2018-07-04T06:17:52.053Z,3.63
2018-07-04T06:20:31.858Z,3.40
2018-07-04T06:23:11.451Z,3.50
2018-07-04T06:25:50.932Z,3.50
2018-07-04T06:28:30.323Z,3.63
2018-07-04T06:31:10.082Z,3.93
2018-07-04T06:33:49.848Z,3.60
2018-07-04T06:36:29.326Z,3.70
2018-07-04T06:38:56.805Z,4.77
2018-07-04T06:41:24.802Z,3.90
2018-07-04T06:43:52.199Z,3.90
2018-07-04T06:46:19.559Z,3.63
2018-07-04T06:48:47.112Z,3.53
2018-07-04T06:51:14.350Z,3.30
2018-07-04T06:53:41.613Z,3.77
2018-07-04T06:56:08.937Z,3.90
2018-07-04T06:58:36.257Z,3.67
2018-07-04T07:01:03.642Z,3.80
2018-07-04T07:03:43.398Z,4.00
2018-07-04T07:06:23.285Z,3.97
2018-07-04T07:09:02.798Z,3.60
2018-07-04T07:11:42.489Z,4.20
2018-07-04T07:14:22.026Z,3.90
2018-07-04T07:17:01.731Z,3.57
2018-07-04T07:19:41.223Z,3.63
2018-07-04T07:22:20.897Z,3.53
2018-07-04T07:25:00.595Z,3.77
2018-07-04T07:27:40.240Z,4.93
2018-07-04T07:30:19.876Z,5.30
2018-07-04T07:32:59.604Z,5.70
2018-07-04T07:35:39.108Z,4.63
2018-07-04T07:38:18.809Z,5.57
2018-07-04T07:40:58.337Z,5.13
2018-07-04T07:43:37.959Z,5.10
2018-07-04T07:46:17.654Z,4.90
2018-07-04T07:48:57.349Z,5.70
2018-07-04T07:51:36.967Z,6.00
2018-07-04T07:54:16.633Z,6.30
2018-07-04T07:56:57.097Z,4.83
2018-07-04T07:59:36.587Z,4.90
2018-07-04T08:02:16.068Z,4.97
2018-07-04T08:04:55.632Z,4.93
2018-07-04T08:07:35.881Z,4.87
2018-07-04T08:10:15.528Z,4.90
2018-07-04T08:12:55.286Z,4.23
2018-07-04T08:15:34.793Z,3.60
2018-07-04T08:18:14.447Z,3.60
2018-07-04T08:20:53.985Z,3.43
2018-07-04T08:23:33.460Z,4.43
2018-07-04T08:26:13.635Z,4.30
2018-07-04T08:28:53.462Z,4.70
2018-07-04T08:31:33.255Z,5.30
2018-07-04T08:34:13.009Z,5.20
2018-07-04T08:36:52.561Z,5.10
2018-07-04T08:39:32.156Z,5.63
2018-07-04T08:42:11.826Z,6.20
2018-07-04T08:44:51.424Z,6.60
2018-07-04T08:47:31.075Z,5.87
2018-07-04T08:50:10.898Z,6.43
2018-07-04T08:52:50.492Z,6.23
2018-07-04T08:55:30.046Z,6.07
2018-07-04T08:58:09.763Z,5.80
2018-07-04T09:00:49.525Z,6.00
2018-07-04T09:03:29.175Z,5.50
2018-07-04T09:06:08.721Z,5.07
2018-07-04T09:08:48.326Z,5.40
2018-07-04T09:11:27.960Z,5.53
2018-07-04T09:14:07.745Z,6.20
2018-07-04T09:16:47.466Z,4.77
2018-07-04T09:19:27.299Z,4.73
2018-07-04T09:22:08.015Z,5.90
2018-07-04T09:24:47.592Z,5.47
2018-07-04T09:27:27.442Z,5.77
2018-07-04T09:30:07.225Z,6.03
2018-07-04T09:32:46.770Z,4.70
2018-07-04T09:35:27.262Z,5.10
2018-07-04T09:38:07.990Z,5.77
2018-07-04T09:40:47.680Z,5.20
2018-07-04T09:43:27.291Z,6.17
2018-07-04T09:46:07.045Z,5.67
2018-07-04T09:48:46.861Z,5.00
2018-07-04T09:51:26.431Z,5.20
2018-07-04T09:54:06.068Z,5.10
2018-07-04T09:56:45.611Z,5.63
2018-07-04T09:59:25.737Z,5.00
2018-07-04T10:02:05.333Z,3.97
2018-07-04T10:04:45.605Z,4.50
2018-07-04T10:07:25.319Z,5.77
2018-07-04T10:10:04.947Z,4.70
2018-07-04T10:12:38.583Z,4.83
2018-07-04T10:15:18.232Z,5.77
2018-07-04T10:17:57.987Z,5.37
2018-07-04T10:20:37.599Z,4.90
2018-07-04T10:23:17.352Z,5.27
2018-07-04T10:25:57.038Z,5.27
2018-07-04T10:28:36.688Z,4.73
2018-07-04T10:31:16.310Z,5.20
2018-07-04T10:33:55.768Z,4.93
2018-07-04T10:36:35.413Z,4.73
2018-07-04T10:39:14.941Z,4.53
2018-07-04T10:41:54.630Z,4.63
2018-07-04T10:44:34.762Z,5.00
2018-07-04T10:47:14.462Z,4.57
2018-07-04T10:49:54.000Z,4.50
2018-07-04T10:52:33.577Z,4.80
2018-07-04T10:55:13.218Z,4.70
2018-07-04T10:57:52.746Z,4.00
2018-07-04T11:00:32.557Z,4.77
2018-07-04T11:03:12.153Z,5.40
2018-07-04T11:05:52.309Z,5.40
2018-07-04T11:08:31.931Z,4.90
2018-07-04T11:11:11.635Z,4.93
2018-07-04T11:13:51.500Z,5.57
2018-07-04T11:16:31.217Z,5.30
2018-07-04T11:19:10.869Z,3.80
2018-07-04T11:21:50.607Z,3.63
2018-07-04T11:24:30.143Z,3.70
2018-07-04T11:27:09.881Z,3.63
2018-07-04T11:29:49.517Z,3.53
2018-07-04T11:32:29.213Z,3.10
2018-07-04T11:35:08.873Z,3.80
2018-07-04T11:37:48.431Z,3.40
2018-07-04T11:40:28.035Z,3.60
2018-07-04T11:43:07.737Z,3.63
2018-07-04T11:45:47.359Z,3.50
2018-07-04T11:48:14.657Z,4.27
2018-07-04T11:50:41.899Z,3.23
2018-07-04T11:53:09.221Z,2.93
2018-07-04T11:55:36.491Z,3.70
2018-07-04T11:58:03.784Z,3.13
2018-07-04T12:00:31.087Z,3.60
2018-07-04T12:02:58.363Z,3.17
2018-07-04T12:05:38.093Z,3.70
2018-07-04T12:08:05.336Z,3.00
2018-07-04T12:10:32.609Z,3.10
2018-07-04T12:12:59.912Z,3.20
2018-07-04T12:15:27.196Z,3.30
2018-07-04T12:17:54.443Z,3.57
2018-07-04T12:20:21.770Z,3.03
2018-07-04T12:22:49.034Z,3.60
2018-07-04T12:25:16.316Z,3.03
2018-07-04T12:27:43.835Z,3.00
2018-07-04T12:30:11.114Z,3.20
2018-07-04T12:32:38.655Z,2.47
2018-07-04T12:35:05.947Z,3.10
2018-07-04T12:37:33.320Z,3.33
2018-07-04T12:40:00.540Z,3.90
2018-07-04T12:42:27.876Z,3.00
2018-07-04T12:44:55.145Z,3.17
2018-07-04T12:47:22.546Z,3.40
2018-07-04T12:49:49.742Z,2.90
2018-07-04T12:52:16.996Z,3.17
2018-07-04T12:54:49.625Z,3.10
2018-07-04T12:57:29.241Z,3.40
2018-07-04T13:00:02.830Z,3.07
2018-07-04T13:02:42.365Z,3.10
2018-07-04T13:05:21.943Z,3.37
2018-07-04T13:08:01.522Z,3.07
2018-07-04T13:10:40.970Z,3.17
2018-07-04T13:13:20.476Z,2.80
2018-07-04T13:16:00.182Z,2.93
2018-07-04T13:18:33.791Z,3.43
2018-07-04T13:21:13.686Z,4.17
2018-07-04T13:23:53.285Z,5.23
2018-07-04T13:26:32.969Z,4.83
2018-07-04T13:29:12.492Z,5.30
2018-07-04T13:31:52.200Z,5.10
2018-07-04T13:34:31.723Z,4.27
2018-07-04T13:37:11.372Z,5.10
2018-07-04T13:39:45.087Z,4.40
2018-07-04T13:42:24.820Z,4.40
2018-07-04T13:45:04.253Z,5.17
2018-07-04T13:47:43.849Z,4.63
2018-07-04T13:50:23.455Z,4.07
2018-07-04T13:53:03.115Z,4.03
2018-07-04T13:55:42.731Z,4.60
2018-07-04T13:58:22.179Z,3.90
2018-07-04T14:01:02.002Z,3.90
2018-07-04T14:03:41.622Z,3.50
2018-07-04T14:06:14.962Z,2.73
2018-07-04T14:08:54.562Z,3.13
2018-07-04T14:11:34.206Z,2.90
2018-07-04T14:14:13.635Z,3.23
2018-07-04T14:16:53.212Z,2.50
2018-07-04T14:19:26.908Z,2.73
2018-07-04T14:22:06.592Z,2.53
2018-07-04T14:24:46.145Z,2.50
2018-07-04T14:27:25.849Z,2.20
2018-07-04T14:30:05.455Z,2.00
2018-07-04T14:32:45.160Z,1.87
2018-07-04T14:35:24.515Z,2.00
2018-07-04T14:38:04.127Z,2.00
2018-07-04T14:40:43.743Z,1.70
2018-07-04T14:43:23.407Z,1.90
2018-07-04T14:45:56.931Z,2.40
2018-07-04T14:48:36.639Z,2.33
2018-07-04T14:51:16.312Z,2.33
2018-07-04T14:53:49.811Z,2.77
2018-07-04T14:56:29.296Z,2.83
2018-07-04T14:59:08.875Z,3.30
2018-07-04T15:01:48.414Z,3.27
2018-07-04T15:04:28.227Z,2.83
2018-07-04T15:07:07.801Z,3.87
2018-07-04T15:09:47.278Z,3.83
2018-07-04T15:12:26.771Z,4.40
2018-07-04T15:15:06.424Z,4.37
2018-07-04T15:17:45.956Z,4.97
2018-07-04T15:20:25.554Z,4.30
2018-07-04T15:23:05.128Z,5.20
2018-07-04T15:25:44.784Z,5.23
2018-07-04T15:28:24.301Z,6.93
2018-07-04T15:31:04.002Z,5.00
2018-07-04T15:33:43.704Z,4.40
2018-07-04T15:36:23.402Z,3.20
2018-07-04T15:39:03.235Z,3.60
2018-07-04T15:41:42.940Z,4.30
2018-07-04T15:44:22.549Z,4.27
2018-07-04T15:47:02.209Z,3.80
2018-07-04T15:49:45.964Z,4.87
2018-07-04T15:52:25.531Z,5.47
2018-07-04T15:55:05.006Z,5.77
2018-07-04T15:57:44.733Z,5.17
2018-07-04T16:00:24.216Z,5.10
2018-07-04T16:03:03.749Z,5.57
2018-07-04T16:05:43.541Z,5.53
2018-07-04T16:08:23.085Z,4.60
2018-07-04T16:11:02.563Z,4.90
2018-07-04T16:13:42.229Z,5.10
2018-07-04T16:16:21.742Z,5.60
2018-07-04T16:18:56.682Z,5.60
2018-07-04T16:21:36.214Z,4.73
2018-07-04T16:24:15.829Z,5.60
2018-07-04T16:26:55.282Z,4.57
2018-07-04T16:29:34.855Z,4.40
2018-07-04T16:32:14.569Z,4.20
2018-07-04T16:34:54.206Z,4.27
2018-07-04T16:37:33.857Z,4.97
2018-07-04T16:40:13.428Z,3.13
2018-07-04T16:42:53.188Z,3.20
2018-07-04T16:45:32.891Z,3.40
2018-07-04T16:48:12.392Z,3.77
2018-07-04T16:50:52.003Z,3.63
2018-07-04T16:53:31.532Z,3.33
2018-07-04T16:56:11.157Z,3.67
2018-07-04T16:58:50.788Z,3.03
2018-07-04T17:01:30.482Z,2.70
2018-07-04T17:04:09.942Z,2.97
2018-07-04T17:06:49.730Z,2.90
2018-07-04T17:09:29.156Z,3.07
2018-07-04T17:12:08.643Z,2.60
2018-07-04T17:14:48.414Z,2.40
2018-07-04T17:17:27.880Z,3.53
2018-07-04T17:20:07.571Z,2.90
2018-07-04T17:22:47.225Z,2.60
2018-07-04T17:25:26.878Z,3.03
2018-07-04T17:28:06.482Z,2.60
2018-07-04T17:30:46.073Z,3.00
2018-07-04T17:33:25.607Z,2.90
2018-07-04T17:36:05.073Z,2.93
2018-07-04T17:38:44.561Z,2.70
2018-07-04T17:41:24.144Z,3.33
2018-07-04T17:44:03.646Z,2.83
2018-07-04T17:46:43.111Z,3.23
2018-07-04T17:49:22.676Z,3.50
2018-07-04T17:52:02.151Z,3.50
2018-07-04T17:54:41.628Z,3.30
2018-07-04T17:57:21.266Z,3.17
2018-07-04T18:00:00.961Z,3.40
2018-07-04T18:02:40.517Z,3.30
2018-07-04T18:05:20.130Z,3.10
2018-07-04T18:07:59.736Z,3.13
2018-07-04T18:10:39.275Z,3.00
2018-07-04T18:13:18.918Z,3.23
2018-07-04T18:15:58.533Z,3.60
2018-07-04T18:18:38.037Z,3.13
2018-07-04T18:21:23.712Z,4.30
2018-07-04T18:24:06.699Z,3.40
2018-07-04T18:26:46.550Z,3.47
2018-07-04T18:29:26.241Z,3.77
2018-07-04T18:32:06.520Z,3.70
2018-07-04T18:34:46.304Z,4.20
2018-07-04T18:37:26.293Z,3.47
2018-07-04T18:40:05.983Z,4.03
2018-07-04T18:42:45.483Z,4.40
2018-07-04T18:45:25.018Z,5.33
2018-07-04T18:48:04.628Z,4.87
2018-07-04T18:50:44.146Z,4.80
2018-07-04T18:53:23.687Z,4.60
2018-07-04T18:56:03.424Z,5.17
2018-07-04T18:58:43.049Z,6.80
2018-07-04T19:01:22.626Z,6.80
2018-07-04T19:04:02.177Z,7.53
2018-07-04T19:06:41.651Z,6.97
2018-07-04T19:09:22.517Z,9.43
2018-07-04T19:12:02.148Z,6.47
2018-07-04T19:14:41.783Z,4.93
2018-07-04T19:17:21.491Z,4.47
2018-07-04T19:20:01.170Z,4.77
2018-07-04T19:22:40.873Z,4.20
2018-07-04T19:25:20.586Z,3.93
2018-07-04T19:28:00.341Z,4.13
2018-07-04T19:30:40.050Z,3.67
2018-07-04T19:33:19.877Z,3.90
2018-07-04T19:35:59.328Z,4.20
2018-07-04T19:38:39.050Z,4.77
2018-07-04T19:41:18.543Z,3.70
2018-07-04T19:43:58.180Z,4.53
2018-07-04T19:46:37.834Z,4.50
2018-07-04T19:49:17.564Z,3.60
2018-07-04T19:51:57.176Z,4.07
2018-07-04T19:54:36.869Z,4.10
2018-07-04T19:57:16.311Z,4.00
2018-07-04T19:59:55.881Z,3.90
2018-07-04T20:02:35.525Z,4.40
2018-07-04T20:05:15.204Z,3.93
2018-07-04T20:07:54.765Z,4.67
2018-07-04T20:10:34.226Z,4.30
2018-07-04T20:13:07.979Z,4.60
2018-07-04T20:15:47.502Z,5.00
2018-07-04T20:18:27.052Z,4.53
2018-07-04T20:21:06.533Z,4.20
2018-07-04T20:23:46.095Z,4.07
2018-07-04T20:26:25.760Z,5.20
2018-07-04T20:29:05.577Z,4.60
2018-07-04T20:31:45.327Z,4.30
2018-07-04T20:34:24.814Z,4.87
2018-07-04T20:37:04.461Z,4.97
2018-07-04T20:39:43.948Z,5.07
2018-07-04T20:42:23.633Z,4.70
2018-07-04T20:45:03.182Z,4.93
2018-07-04T20:47:42.931Z,5.10
2018-07-04T20:50:22.566Z,5.23
2018-07-04T20:53:02.114Z,5.37
2018-07-04T20:55:41.892Z,4.87
2018-07-04T20:58:21.430Z,5.23
2018-07-04T21:01:01.018Z,5.37
2018-07-04T21:03:40.641Z,4.90
2018-07-04T21:06:20.311Z,4.80
2018-07-04T21:09:00.000Z,5.37
2018-07-04T21:11:39.577Z,4.90
2018-07-04T21:14:19.130Z,5.57
2018-07-04T21:16:58.682Z,4.67
2018-07-04T21:19:38.349Z,4.30
2018-07-04T21:22:17.871Z,4.60
2018-07-04T21:24:57.377Z,4.63
2018-07-04T21:27:31.146Z,5.00
2018-07-04T21:30:10.655Z,5.23
2018-07-04T21:32:50.239Z,5.20
2018-07-04T21:35:29.863Z,5.23
2018-07-04T21:38:09.504Z,6.10
2018-07-04T21:40:49.213Z,5.20
2018-07-04T21:43:28.735Z,5.43
2018-07-04T21:46:08.402Z,5.97
2018-07-04T21:48:47.847Z,6.50
2018-07-04T21:51:27.366Z,6.30
2018-07-04T21:54:07.023Z,5.03
2018-07-04T21:56:46.727Z,5.93
2018-07-04T21:59:26.427Z,5.80
2018-07-04T22:02:06.016Z,5.67
2018-07-04T22:04:45.598Z,4.90
2018-07-04T22:07:25.368Z,6.40
2018-07-04T22:10:05.111Z,5.77
2018-07-04T22:12:44.723Z,5.67
2018-07-04T22:15:24.389Z,5.80
2018-07-04T22:18:04.060Z,5.70
2018-07-04T22:20:43.735Z,4.97
2018-07-04T22:23:23.241Z,5.60
2018-07-04T22:26:02.875Z,5.37
2018-07-04T22:28:42.419Z,5.73
2018-07-04T22:31:22.070Z,6.60
2018-07-04T22:34:01.665Z,6.30
2018-07-04T22:36:41.339Z,6.57
2018-07-04T22:39:21.057Z,6.03
2018-07-04T22:42:00.624Z,7.90
2018-07-04T22:44:40.288Z,8.30
2018-07-04T22:47:19.867Z,6.70
2018-07-04T22:49:59.409Z,6.93
2018-07-04T22:52:39.088Z,7.90
2018-07-04T22:55:18.745Z,7.27
2018-07-04T22:57:58.316Z,6.77
2018-07-04T23:00:37.952Z,7.00
2018-07-04T23:03:17.499Z,6.80
2018-07-04T23:05:57.148Z,6.97
2018-07-04T23:08:36.759Z,6.83
2018-07-04T23:11:16.244Z,7.50
2018-07-04T23:13:55.827Z,6.53
2018-07-04T23:16:35.602Z,6.60
2018-07-04T23:19:15.118Z,8.00
2018-07-04T23:21:54.644Z,8.70
2018-07-04T23:24:34.189Z,6.37
2018-07-04T23:27:13.822Z,6.97
2018-07-04T23:29:53.333Z,6.30
2018-07-04T23:32:32.855Z,7.43
2018-07-04T23:35:12.544Z,7.00
2018-07-04T23:37:52.050Z,7.37
2018-07-04T23:40:31.652Z,6.53
2018-07-04T23:43:11.277Z,6.37
2018-07-04T23:45:50.893Z,6.40
2018-07-04T23:48:30.572Z,7.27
2018-07-04T23:51:10.077Z,7.10
2018-07-04T23:53:49.728Z,6.60
2018-07-04T23:56:29.276Z,6.47
2018-07-04T23:59:08.908Z,6.27
